sensor_id;sensor_type;location;lat;lon;timestamp;pressure;altitude;pressure_sealevel;temperature;humidity
24610;BME280;12758;47.890;11.694;2023-08-17T00:00:55;94038.19;;;24.13;100.00
24610;BME280;12758;47.890;11.694;2023-08-17T00:03:21;94042.91;;;24.16;100.00
24610;BME280;12758;47.890;11.694;2023-08-17T00:05:47;94039.38;;;24.12;100.00
24610;BME280;12758;47.890;11.694;2023-08-17T00:08:13;94037.00;;;24.14;100.00
24610;BME280;12758;47.890;11.694;2023-08-17T00:10:39;94040.22;;;24.09;100.00
24610;BME280;12758;47.890;11.694;2023-08-17T00:13:05;94044.19;;;24.08;100.00
24610;BME280;12758;47.890;11.694;2023-08-17T00:15:32;94032.72;;;24.06;100.00
24610;BME280;12758;47.890;11.694;2023-08-17T00:17:58;94032.28;;;24.11;100.00
24610;BME280;12758;47.890;11.694;2023-08-17T00:20:24;94030.69;;;24.10;100.00
24610;BME280;12758;47.890;11.694;2023-08-17T00:22:53;94036.31;;;24.03;100.00
24610;BME280;12758;47.890;11.694;2023-08-17T00:25:19;94032.31;;;24.04;100.00
24610;BME280;12758;47.890;11.694;2023-08-17T00:27:45;94023.63;;;24.02;100.00
24610;BME280;12758;47.890;11.694;2023-08-17T00:30:12;94025.63;;;24.02;100.00
24610;BME280;12758;47.890;11.694;2023-08-17T00:32:39;94022.03;;;24.01;100.00
24610;BME280;12758;47.890;11.694;2023-08-17T00:35:06;94020.94;;;23.95;100.00
24610;BME280;12758;47.890;11.694;2023-08-17T00:37:32;94022.13;;;23.94;100.00
24610;BME280;12758;47.890;11.694;2023-08-17T00:39:58;94023.75;;;23.88;100.00
24610;BME280;12758;47.890;11.694;2023-08-17T00:42:24;94021.78;;;23.85;100.00
24610;BME280;12758;47.890;11.694;2023-08-17T00:44:50;94030.09;;;23.85;100.00
24610;BME280;12758;47.890;11.694;2023-08-17T00:47:16;94029.28;;;23.88;100.00
24610;BME280;12758;47.890;11.694;2023-08-17T00:49:43;94030.88;;;23.89;100.00
24610;BME280;12758;47.890;11.694;2023-08-17T00:52:09;94030.09;;;23.85;100.00
24610;BME280;12758;47.890;11.694;2023-08-17T00:54:36;94035.69;;;23.81;100.00
24610;BME280;12758;47.890;11.694;2023-08-17T00:57:02;94032.16;;;23.77;100.00
24610;BME280;12758;47.890;11.694;2023-08-17T00:59:32;94023.06;;;23.77;100.00
24610;BME280;12758;47.890;11.694;2023-08-17T01:01:58;94012.03;;;23.69;100.00
24610;BME280;12758;47.890;11.694;2023-08-17T01:04:24;94017.94;;;23.71;100.00
24610;BME280;12758;47.890;11.694;2023-08-17T01:06:50;94020.72;;;23.68;100.00
24610;BME280;12758;47.890;11.694;2023-08-17T01:09:16;94012.81;;;23.66;100.00
24610;BME280;12758;47.890;11.694;2023-08-17T01:11:47;94005.28;;;23.70;100.00
24610;BME280;12758;47.890;11.694;2023-08-17T01:14:37;94013.22;;;23.68;100.00
24610;BME280;12758;47.890;11.694;2023-08-17T01:17:10;94016.00;;;23.68;100.00
24610;BME280;12758;47.890;11.694;2023-08-17T01:19:38;94018.38;;;23.66;100.00
24610;BME280;12758;47.890;11.694;2023-08-17T01:22:05;94022.38;;;23.58;100.00
24610;BME280;12758;47.890;11.694;2023-08-17T01:24:34;94027.09;;;23.61;100.00
24610;BME280;12758;47.890;11.694;2023-08-17T01:27:00;94018.78;;;23.61;100.00
24610;BME280;12758;47.890;11.694;2023-08-17T01:29:26;94016.81;;;23.62;100.00
24610;BME280;12758;47.890;11.694;2023-08-17T01:31:54;94024.75;;;23.56;100.00
24610;BME280;12758;47.890;11.694;2023-08-17T01:34:22;94023.94;;;23.59;100.00
24610;BME280;12758;47.890;11.694;2023-08-17T01:36:52;94018.41;;;23.59;100.00
24610;BME280;12758;47.890;11.694;2023-08-17T01:39:19;94019.22;;;23.56;100.00
24610;BME280;12758;47.890;11.694;2023-08-17T01:41:50;94014.50;;;23.53;100.00
24610;BME280;12758;47.890;11.694;2023-08-17T01:44:16;94016.06;;;23.54;100.00
24610;BME280;12758;47.890;11.694;2023-08-17T01:46:43;94012.97;;;23.45;100.00
24610;BME280;12758;47.890;11.694;2023-08-17T01:49:09;94015.72;;;23.48;100.00
24610;BME280;12758;47.890;11.694;2023-08-17T01:51:35;94014.16;;;23.47;100.00
24610;BME280;12758;47.890;11.694;2023-08-17T01:54:01;94012.22;;;23.41;100.00
24610;BME280;12758;47.890;11.694;2023-08-17T01:56:27;94015.34;;;23.43;100.00
24610;BME280;12758;47.890;11.694;2023-08-17T01:58:53;94011.81;;;23.39;100.00
24610;BME280;12758;47.890;11.694;2023-08-17T02:01:19;94002.00;;;23.31;100.00
24610;BME280;12758;47.890;11.694;2023-08-17T02:03:45;94008.34;;;23.28;100.00
24610;BME280;12758;47.890;11.694;2023-08-17T02:06:11;94005.88;;;23.37;100.00
24610;BME280;12758;47.890;11.694;2023-08-17T02:08:37;94003.56;;;23.32;100.00
24610;BME280;12758;47.890;11.694;2023-08-17T02:11:03;93993.31;;;23.25;100.00
24610;BME280;12758;47.890;11.694;2023-08-17T02:13:29;94005.19;;;23.25;100.00
24610;BME280;12758;47.890;11.694;2023-08-17T02:15:56;94004.47;;;23.18;100.00
24610;BME280;12758;47.890;11.694;2023-08-17T02:18:22;94009.22;;;23.14;100.00
24610;BME280;12758;47.890;11.694;2023-08-17T02:20:48;93997.28;;;23.20;100.00
24610;BME280;12758;47.890;11.694;2023-08-17T02:23:14;93999.66;;;23.25;100.00
24610;BME280;12758;47.890;11.694;2023-08-17T02:25:40;93990.16;;;23.23;100.00
24610;BME280;12758;47.890;11.694;2023-08-17T02:28:06;93990.97;;;23.20;100.00
24610;BME280;12758;47.890;11.694;2023-08-17T02:30:32;93986.25;;;23.13;100.00
24610;BME280;12758;47.890;11.694;2023-08-17T02:32:59;93989.84;;;23.10;100.00
24610;BME280;12758;47.890;11.694;2023-08-17T02:35:25;93991.84;;;23.10;100.00
24610;BME280;12758;47.890;11.694;2023-08-17T02:37:51;93995.78;;;23.12;100.00
24610;BME280;12758;47.890;11.694;2023-08-17T02:40:17;94004.88;;;23.13;100.00
24610;BME280;12758;47.890;11.694;2023-08-17T02:42:46;93984.31;;;23.10;100.00
24610;BME280;12758;47.890;11.694;2023-08-17T02:45:12;93991.41;;;23.11;100.00
24610;BME280;12758;47.890;11.694;2023-08-17T02:47:38;93988.28;;;23.09;100.00
24610;BME280;12758;47.890;11.694;2023-08-17T02:50:06;93986.31;;;23.06;100.00
24610;BME280;12758;47.890;11.694;2023-08-17T02:52:32;93983.56;;;23.02;100.00
24610;BME280;12758;47.890;11.694;2023-08-17T02:54:58;93984.75;;;23.01;100.00
24610;BME280;12758;47.890;11.694;2023-08-17T02:57:24;93983.13;;;23.08;100.00
24610;BME280;12758;47.890;11.694;2023-08-17T02:59:50;93973.69;;;23.05;100.00
24610;BME280;12758;47.890;11.694;2023-08-17T03:02:16;93978.00;;;23.06;100.00
24610;BME280;12758;47.890;11.694;2023-08-17T03:04:42;93982.78;;;23.02;100.00
24610;BME280;12758;47.890;11.694;2023-08-17T03:07:09;93974.91;;;22.97;100.00
24610;BME280;12758;47.890;11.694;2023-08-17T03:09:35;93980.03;;;22.95;100.00
24610;BME280;12758;47.890;11.694;2023-08-17T03:12:01;93974.50;;;22.95;100.00
24610;BME280;12758;47.890;11.694;2023-08-17T03:14:27;93979.25;;;22.91;100.00
24610;BME280;12758;47.890;11.694;2023-08-17T03:16:53;93978.47;;;22.90;100.00
24610;BME280;12758;47.890;11.694;2023-08-17T03:19:20;93978.50;;;22.87;100.00
24610;BME280;12758;47.890;11.694;2023-08-17T03:21:46;93976.91;;;22.82;100.00
24610;BME280;12758;47.890;11.694;2023-08-17T03:24:13;93984.03;;;22.87;100.00
24610;BME280;12758;47.890;11.694;2023-08-17T03:26:39;93979.28;;;22.87;100.00
24610;BME280;12758;47.890;11.694;2023-08-17T03:29:05;93978.50;;;22.87;100.00
24610;BME280;12758;47.890;11.694;2023-08-17T03:31:31;93972.94;;;22.87;100.00
24610;BME280;12758;47.890;11.694;2023-08-17T03:33:57;93977.78;;;22.68;100.00
24610;BME280;12758;47.890;11.694;2023-08-17T03:36:24;93982.91;;;22.66;100.00
24610;BME280;12758;47.890;11.694;2023-08-17T03:38:50;93978.53;;;22.72;100.00
24610;BME280;12758;47.890;11.694;2023-08-17T03:41:18;93986.44;;;22.77;100.00
24610;BME280;12758;47.890;11.694;2023-08-17T03:43:44;93991.19;;;22.77;100.00
24610;BME280;12758;47.890;11.694;2023-08-17T03:46:10;93981.72;;;22.74;100.00
24610;BME280;12758;47.890;11.694;2023-08-17T03:48:36;93984.50;;;22.71;100.00
24610;BME280;12758;47.890;11.694;2023-08-17T03:51:02;93984.06;;;22.72;100.00
24610;BME280;12758;47.890;11.694;2023-08-17T03:53:29;93982.91;;;22.73;100.00
24610;BME280;12758;47.890;11.694;2023-08-17T03:55:56;93986.47;;;22.70;100.00
24610;BME280;12758;47.890;11.694;2023-08-17T03:58:22;93986.47;;;22.70;100.00
24610;BME280;12758;47.890;11.694;2023-08-17T04:00:49;93993.59;;;22.71;100.00
24610;BME280;12758;47.890;11.694;2023-08-17T04:03:15;93983.31;;;22.68;100.00
24610;BME280;12758;47.890;11.694;2023-08-17T04:05:41;93995.59;;;22.67;100.00
24610;BME280;12758;47.890;11.694;2023-08-17T04:08:07;94003.13;;;22.63;100.00
24610;BME280;12758;47.890;11.694;2023-08-17T04:10:34;93997.59;;;22.63;100.00
24610;BME280;12758;47.890;11.694;2023-08-17T04:13:00;93993.63;;;22.61;100.00
24610;BME280;12758;47.890;11.694;2023-08-17T04:15:26;94015.00;;;22.60;100.00
24610;BME280;12758;47.890;11.694;2023-08-17T04:17:52;94006.28;;;22.58;100.00
24610;BME280;12758;47.890;11.694;2023-08-17T04:20:18;94007.50;;;22.57;100.00
24610;BME280;12758;47.890;11.694;2023-08-17T04:22:44;94010.25;;;22.57;100.00
24610;BME280;12758;47.890;11.694;2023-08-17T04:25:10;94007.09;;;22.55;100.00
24610;BME280;12758;47.890;11.694;2023-08-17T04:27:37;94011.06;;;22.54;100.00
24610;BME280;12758;47.890;11.694;2023-08-17T04:30:03;94016.19;;;22.52;100.00
24610;BME280;12758;47.890;11.694;2023-08-17T04:32:30;94007.91;;;22.45;100.00
24610;BME280;12758;47.890;11.694;2023-08-17T04:34:56;94006.34;;;22.47;100.00
24610;BME280;12758;47.890;11.694;2023-08-17T04:37:22;94002.78;;;22.50;100.00
24610;BME280;12758;47.890;11.694;2023-08-17T04:39:48;94013.41;;;22.52;100.00
24610;BME280;12758;47.890;11.694;2023-08-17T04:42:15;94019.34;;;22.54;100.00
24610;BME280;12758;47.890;11.694;2023-08-17T04:44:41;94025.34;;;22.27;100.00
24610;BME280;12758;47.890;11.694;2023-08-17T04:47:07;94022.16;;;22.40;100.00
24610;BME280;12758;47.890;11.694;2023-08-17T04:49:34;94019.81;;;22.35;100.00
24610;BME280;12758;47.890;11.694;2023-08-17T04:52:00;94019.38;;;22.40;100.00
24610;BME280;12758;47.890;11.694;2023-08-17T04:54:26;94024.53;;;22.38;100.00
24610;BME280;12758;47.890;11.694;2023-08-17T04:56:52;94029.66;;;22.39;100.00
24610;BME280;12758;47.890;11.694;2023-08-17T04:59:18;94024.53;;;22.38;100.00
24610;BME280;12758;47.890;11.694;2023-08-17T05:01:44;94029.28;;;22.26;100.00
24610;BME280;12758;47.890;11.694;2023-08-17T05:04:10;94027.75;;;21.97;100.00
24610;BME280;12758;47.890;11.694;2023-08-17T05:06:39;94030.09;;;22.02;100.00
24610;BME280;12758;47.890;11.694;2023-08-17T05:09:05;94032.47;;;22.07;100.00
24610;BME280;12758;47.890;11.694;2023-08-17T05:11:32;94026.91;;;22.14;100.00
24610;BME280;12758;47.890;11.694;2023-08-17T05:13:58;94027.72;;;22.25;100.00
24610;BME280;12758;47.890;11.694;2023-08-17T05:16:24;94029.31;;;22.19;100.00
24610;BME280;12758;47.890;11.694;2023-08-17T05:18:50;94027.72;;;22.25;100.00
24610;BME280;12758;47.890;11.694;2023-08-17T05:21:16;94024.97;;;22.25;100.00
24610;BME280;12758;47.890;11.694;2023-08-17T05:23:42;94028.50;;;22.08;100.00
24610;BME280;12758;47.890;11.694;2023-08-17T05:26:08;94034.03;;;22.15;100.00
24610;BME280;12758;47.890;11.694;2023-08-17T05:28:34;94031.66;;;22.21;100.00
24610;BME280;12758;47.890;11.694;2023-08-17T05:31:03;94030.09;;;22.02;100.00
24610;BME280;12758;47.890;11.694;2023-08-17T05:33:29;94023.00;;;22.01;100.00
24610;BME280;12758;47.890;11.694;2023-08-17T05:35:55;94023.38;;;22.06;100.00
24610;BME280;12758;47.890;11.694;2023-08-17T05:38:21;94033.25;;;22.04;100.00
24610;BME280;12758;47.890;11.694;2023-08-17T05:40:48;94041.97;;;21.81;100.00
24610;BME280;12758;47.890;11.694;2023-08-17T05:43:19;94032.50;;;21.93;100.00
24610;BME280;12758;47.890;11.694;2023-08-17T05:45:45;94028.13;;;22.02;100.00
24610;BME280;12758;47.890;11.694;2023-08-17T05:48:11;94032.47;;;22.07;100.00
24610;BME280;12758;47.890;11.694;2023-08-17T05:50:40;94026.94;;;22.00;100.00
24610;BME280;12758;47.890;11.694;2023-08-17T05:53:06;94025.72;;;22.12;100.00
24610;BME280;12758;47.890;11.694;2023-08-17T05:55:32;94023.78;;;22.12;100.00
24610;BME280;12758;47.890;11.694;2023-08-17T05:57:59;94031.66;;;22.10;100.00
24610;BME280;12758;47.890;11.694;2023-08-17T06:00:25;94030.88;;;22.20;100.00
24610;BME280;12758;47.890;11.694;2023-08-17T06:02:51;94021.41;;;22.21;100.00
24610;BME280;12758;47.890;11.694;2023-08-17T06:05:17;94025.75;;;22.22;100.00
24610;BME280;12758;47.890;11.694;2023-08-17T06:07:44;94039.19;;;22.20;100.00
24610;BME280;12758;47.890;11.694;2023-08-17T06:10:10;94031.69;;;22.17;100.00
24610;BME280;12758;47.890;11.694;2023-08-17T06:12:37;94037.22;;;22.17;100.00
24610;BME280;12758;47.890;11.694;2023-08-17T06:15:05;94033.28;;;21.93;100.00
24610;BME280;12758;47.890;11.694;2023-08-17T06:17:31;94032.47;;;22.00;100.00
24610;BME280;12758;47.890;11.694;2023-08-17T06:19:57;94039.97;;;22.24;100.00
24610;BME280;12758;47.890;11.694;2023-08-17T06:22:23;94035.63;;;22.23;100.00
24610;BME280;12758;47.890;11.694;2023-08-17T06:24:49;94035.59;;;22.30;100.00
24610;BME280;12758;47.890;11.694;2023-08-17T06:27:16;94031.66;;;22.10;100.00
24610;BME280;12758;47.890;11.694;2023-08-17T06:29:42;94039.59;;;21.86;100.00
24610;BME280;12758;47.890;11.694;2023-08-17T06:32:10;94038.78;;;21.82;100.00
24610;BME280;12758;47.890;11.694;2023-08-17T06:34:36;94032.47;;;21.78;100.00
24610;BME280;12758;47.890;11.694;2023-08-17T06:37:03;94041.16;;;21.73;100.00
24610;BME280;12758;47.890;11.694;2023-08-17T06:39:29;94038.00;;;21.57;100.00
24610;BME280;12758;47.890;11.694;2023-08-17T06:41:55;94035.63;;;21.48;100.00
24610;BME280;12758;47.890;11.694;2023-08-17T06:44:21;94033.25;;;21.39;100.00
24610;BME280;12758;47.890;11.694;2023-08-17T06:46:47;94029.72;;;21.53;100.00
24610;BME280;12758;47.890;11.694;2023-08-17T06:49:14;94032.47;;;21.57;100.00
24610;BME280;12758;47.890;11.694;2023-08-17T06:51:40;94026.56;;;21.76;100.00
24610;BME280;12758;47.890;11.694;2023-08-17T06:54:07;94034.47;;;21.81;100.00
24610;BME280;12758;47.890;11.694;2023-08-17T06:56:33;94040.38;;;21.83;100.00
24610;BME280;12758;47.890;11.694;2023-08-17T06:58:59;94042.34;;;21.79;100.00
24610;BME280;12758;47.890;11.694;2023-08-17T07:01:25;94047.50;;;21.77;100.00
24610;BME280;12758;47.890;11.694;2023-08-17T07:03:52;94048.28;;;21.67;100.00
24610;BME280;12758;47.890;11.694;2023-08-17T07:06:18;94040.38;;;21.69;100.00
24610;BME280;12758;47.890;11.694;2023-08-17T07:08:44;94043.53;;;21.71;100.00
24610;BME280;12758;47.890;11.694;2023-08-17T07:11:11;94042.75;;;21.67;100.00
24610;BME280;12758;47.890;11.694;2023-08-17T07:13:37;94047.47;;;21.63;100.00
24610;BME280;12758;47.890;11.694;2023-08-17T07:16:03;94046.69;;;21.66;100.00
24610;BME280;12758;47.890;11.694;2023-08-17T07:18:29;94051.44;;;21.87;100.00
24610;BME280;12758;47.890;11.694;2023-08-17T07:20:55;94059.72;;;21.83;100.00
24610;BME280;12758;47.890;11.694;2023-08-17T07:23:25;94054.59;;;21.96;100.00
24610;BME280;12758;47.890;11.694;2023-08-17T07:25:51;94052.59;;;22.11;100.00
24610;BME280;12758;47.890;11.694;2023-08-17T07:28:17;94061.66;;;22.51;100.00
24610;BME280;12758;47.890;11.694;2023-08-17T07:30:43;94061.63;;;22.58;100.00
24610;BME280;12758;47.890;11.694;2023-08-17T07:33:09;94063.22;;;22.52;100.00
24610;BME280;12758;47.890;11.694;2023-08-17T07:35:35;94063.63;;;22.47;100.00
24610;BME280;12758;47.890;11.694;2023-08-17T07:38:01;94069.56;;;22.49;100.00
24610;BME280;12758;47.890;11.694;2023-08-17T07:40:28;94069.56;;;22.49;100.00
24610;BME280;12758;47.890;11.694;2023-08-17T07:42:54;94069.56;;;22.49;100.00
24610;BME280;12758;47.890;11.694;2023-08-17T07:45:20;94068.78;;;22.45;100.00
24610;BME280;12758;47.890;11.694;2023-08-17T07:47:46;94064.41;;;22.51;100.00
24610;BME280;12758;47.890;11.694;2023-08-17T07:50:12;94063.22;;;22.55;100.00
24610;BME280;12758;47.890;11.694;2023-08-17T07:52:38;94061.63;;;22.58;100.00
24610;BME280;12758;47.890;11.694;2023-08-17T07:55:04;94067.13;;;22.65;100.00
24610;BME280;12758;47.890;11.694;2023-08-17T07:57:31;94060.00;;;22.71;100.00
24610;BME280;12758;47.890;11.694;2023-08-17T07:59:57;94065.94;;;22.66;100.00
24610;BME280;12758;47.890;11.694;2023-08-17T08:02:23;94059.59;;;22.69;100.00
24610;BME280;12758;47.890;11.694;2023-08-17T08:04:49;94052.09;;;22.73;100.00
24610;BME280;12758;47.890;11.694;2023-08-17T08:07:15;94052.88;;;22.77;100.00
24610;BME280;12758;47.890;11.694;2023-08-17T08:09:41;94052.09;;;22.77;100.00
24610;BME280;12758;47.890;11.694;2023-08-17T08:12:07;94054.44;;;22.86;100.00
24610;BME280;12758;47.890;11.694;2023-08-17T08:14:34;94062.72;;;22.89;100.00
24610;BME280;12758;47.890;11.694;2023-08-17T08:17:00;94054.00;;;22.94;100.00
24610;BME280;12758;47.890;11.694;2023-08-17T08:19:26;94063.09;;;22.95;100.00
24610;BME280;12758;47.890;11.694;2023-08-17T08:21:52;94059.16;;;22.96;100.00
24610;BME280;12758;47.890;11.694;2023-08-17T08:24:18;94053.97;;;23.01;100.00
24610;BME280;12758;47.890;11.694;2023-08-17T08:26:44;94056.69;;;23.12;100.00
24610;BME280;12758;47.890;11.694;2023-08-17T08:29:10;94043.63;;;23.13;100.00
24610;BME280;12758;47.890;11.694;2023-08-17T08:31:37;94052.72;;;23.13;100.00
24610;BME280;12758;47.890;11.694;2023-08-17T08:34:03;94044.81;;;23.15;100.00
24610;BME280;12758;47.890;11.694;2023-08-17T08:36:29;94051.53;;;23.14;100.00
24610;BME280;12758;47.890;11.694;2023-08-17T08:38:55;94049.16;;;23.16;100.00
24610;BME280;12758;47.890;11.694;2023-08-17T08:41:21;94058.94;;;23.35;100.00
24610;BME280;12758;47.890;11.694;2023-08-17T08:43:47;94059.69;;;23.43;100.00
24610;BME280;12758;47.890;11.694;2023-08-17T08:46:13;94064.47;;;23.39;100.00
24610;BME280;12758;47.890;11.694;2023-08-17T08:48:41;94059.31;;;23.41;100.00
24610;BME280;12758;47.890;11.694;2023-08-17T08:51:07;94050.19;;;23.44;100.00
24610;BME280;12758;47.890;11.694;2023-08-17T08:53:37;94052.16;;;23.47;100.00
24610;BME280;12758;47.890;11.694;2023-08-17T08:56:04;94058.69;;;23.78;100.00
24610;BME280;12758;47.890;11.694;2023-08-17T08:58:31;94054.31;;;23.81;100.00
24610;BME280;12758;47.890;11.694;2023-08-17T09:00:58;94056.25;;;23.87;100.00
24610;BME280;12758;47.890;11.694;2023-08-17T09:03:26;94062.50;;;23.99;100.00
24610;BME280;12758;47.890;11.694;2023-08-17T09:05:53;94059.00;;;23.87;100.00
24610;BME280;12758;47.890;11.694;2023-08-17T09:08:22;94059.75;;;23.95;100.00
24610;BME280;12758;47.890;11.694;2023-08-17T09:10:48;94057.44;;;23.86;100.00
24610;BME280;12758;47.890;11.694;2023-08-17T09:13:14;94054.31;;;24.26;100.00
24610;BME280;12758;47.890;11.694;2023-08-17T09:15:40;94048.47;;;24.16;100.00
24610;BME280;12758;47.890;11.694;2023-08-17T09:18:06;94052.88;;;24.10;100.00
24610;BME280;12758;47.890;11.694;2023-08-17T09:20:37;94044.94;;;24.12;100.00
24610;BME280;12758;47.890;11.694;2023-08-17T09:23:09;94048.00;;;24.25;100.00
24610;BME280;12758;47.890;11.694;2023-08-17T09:25:35;94046.47;;;24.58;100.00
24610;BME280;12758;47.890;11.694;2023-08-17T09:28:06;94042.97;;;24.54;100.00
24610;BME280;12758;47.890;11.694;2023-08-17T09:30:34;94041.50;;;24.43;100.00
24610;BME280;12758;47.890;11.694;2023-08-17T09:33:14;94031.13;;;24.50;100.00
24610;BME280;12758;47.890;11.694;2023-08-17T09:35:41;94044.53;;;24.55;100.00
24610;BME280;12758;47.890;11.694;2023-08-17T09:38:08;94038.94;;;24.62;100.00
24610;BME280;12758;47.890;11.694;2023-08-17T09:40:34;94044.53;;;24.55;100.00
24610;BME280;12758;47.890;11.694;2023-08-17T09:43:01;94042.97;;;24.54;100.00
24610;BME280;12758;47.890;11.694;2023-08-17T09:45:28;94042.84;;;24.65;100.00
24610;BME280;12758;47.890;11.694;2023-08-17T09:47:58;94035.84;;;24.53;100.00
24610;BME280;12758;47.890;11.694;2023-08-17T09:50:24;94035.84;;;24.53;100.00
24610;BME280;12758;47.890;11.694;2023-08-17T09:52:53;94041.22;;;24.68;100.00
24610;BME280;12758;47.890;11.694;2023-08-17T09:55:21;94032.19;;;24.94;100.00
24610;BME280;12758;47.890;11.694;2023-08-17T09:57:47;94040.91;;;24.96;100.00
24610;BME280;12758;47.890;11.694;2023-08-17T10:00:14;94031.00;;;25.26;100.00
24610;BME280;12758;47.890;11.694;2023-08-17T10:02:40;94030.38;;;25.15;100.00
24610;BME280;12758;47.890;11.694;2023-08-17T10:05:08;94033.69;;;25.02;100.00
24610;BME280;12758;47.890;11.694;2023-08-17T10:07:37;94037.50;;;25.16;100.00
24610;BME280;12758;47.890;11.694;2023-08-17T10:10:05;94035.53;;;24.82;100.00
24610;BME280;12758;47.890;11.694;2023-08-17T10:12:36;94036.41;;;24.75;100.00
24610;BME280;12758;47.890;11.694;2023-08-17T10:15:05;94032.81;;;24.75;100.00
24610;BME280;12758;47.890;11.694;2023-08-17T10:17:36;94022.78;;;25.19;100.00
24610;BME280;12758;47.890;11.694;2023-08-17T10:20:06;94025.88;;;25.24;100.00
24610;BME280;12758;47.890;11.694;2023-08-17T10:22:34;94026.63;;;25.28;100.00
24610;BME280;12758;47.890;11.694;2023-08-17T10:25:04;94029.53;;;25.18;100.00
24610;BME280;12758;47.890;11.694;2023-08-17T10:27:32;94028.28;;;25.22;100.00
24610;BME280;12758;47.890;11.694;2023-08-17T10:29:59;94027.66;;;25.38;100.00
24610;BME280;12758;47.890;11.694;2023-08-17T10:32:27;94036.31;;;25.44;100.00
24610;BME280;12758;47.890;11.694;2023-08-17T10:34:53;94025.03;;;25.27;100.00
24610;BME280;12758;47.890;11.694;2023-08-17T10:37:20;94029.53;;;25.18;100.00
24610;BME280;12758;47.890;11.694;2023-08-17T10:39:47;94030.16;;;24.98;100.00
24610;BME280;12758;47.890;11.694;2023-08-17T10:42:14;94030.44;;;25.07;100.00
24610;BME280;12758;47.890;11.694;2023-08-17T10:44:44;94030.63;;;24.93;100.00
24610;BME280;12758;47.890;11.694;2023-08-17T10:47:23;94023.84;;;24.94;100.00
24610;BME280;12758;47.890;11.694;2023-08-17T10:49:50;94026.34;;;25.19;100.00
24610;BME280;12758;47.890;11.694;2023-08-17T10:52:25;94028.81;;;25.14;100.00
24610;BME280;12758;47.890;11.694;2023-08-17T10:54:51;94031.84;;;25.23;100.00
24610;BME280;12758;47.890;11.694;2023-08-17T10:57:28;94031.81;;;24.92;100.00
24610;BME280;12758;47.890;11.694;2023-08-17T11:00:12;94032.47;;;24.73;100.00
24610;BME280;12758;47.890;11.694;2023-08-17T11:02:39;94037.81;;;24.87;100.00
24610;BME280;12758;47.890;11.694;2023-08-17T11:05:06;94028.38;;;24.81;100.00
24610;BME280;12758;47.890;11.694;2023-08-17T11:07:40;94033.50;;;25.17;100.00
24610;BME280;12758;47.890;11.694;2023-08-17T11:10:13;94031.56;;;25.44;100.00
24610;BME280;12758;47.890;11.694;2023-08-17T11:12:53;94016.09;;;25.13;100.00
24610;BME280;12758;47.890;11.694;2023-08-17T11:15:23;94024.66;;;25.25;100.00
24610;BME280;12758;47.890;11.694;2023-08-17T11:17:49;94020.66;;;25.30;100.00
24610;BME280;12758;47.890;11.694;2023-08-17T11:20:15;94025.78;;;25.01;100.00
24610;BME280;12758;47.890;11.694;2023-08-17T11:22:41;94016.75;;;25.24;100.00
24610;BME280;12758;47.890;11.694;2023-08-17T11:25:08;94022.53;;;25.64;100.00
24610;BME280;12758;47.890;11.694;2023-08-17T11:27:34;94015.88;;;25.85;100.00
24610;BME280;12758;47.890;11.694;2023-08-17T11:30:00;94012.53;;;25.93;100.00
24610;BME280;12758;47.890;11.694;2023-08-17T11:32:27;94010.44;;;25.74;100.00
24610;BME280;12758;47.890;11.694;2023-08-17T11:34:53;94012.75;;;25.79;100.00
24610;BME280;12758;47.890;11.694;2023-08-17T11:37:19;94004.81;;;26.05;100.00
24610;BME280;12758;47.890;11.694;2023-08-17T11:39:46;93999.91;;;25.89;100.00
24610;BME280;12758;47.890;11.694;2023-08-17T11:42:12;94003.63;;;25.51;100.00
24610;BME280;12758;47.890;11.694;2023-08-17T11:44:38;94005.91;;;25.33;100.00
24610;BME280;12758;47.890;11.694;2023-08-17T11:47:04;93999.16;;;25.34;100.00
24610;BME280;12758;47.890;11.694;2023-08-17T11:49:31;93996.81;;;25.83;100.00
24610;BME280;12758;47.890;11.694;2023-08-17T11:51:57;93993.94;;;25.63;100.00
24610;BME280;12758;47.890;11.694;2023-08-17T11:54:23;93991.94;;;25.64;100.00
24610;BME280;12758;47.890;11.694;2023-08-17T11:56:49;93992.63;;;25.44;100.00
24610;BME280;12758;47.890;11.694;2023-08-17T11:59:15;93988.88;;;25.31;100.00
24610;BME280;12758;47.890;11.694;2023-08-17T12:01:44;93983.19;;;25.38;100.00
24610;BME280;12758;47.890;11.694;2023-08-17T12:04:10;93973.75;;;25.32;100.00
24610;BME280;12758;47.890;11.694;2023-08-17T12:06:37;93975.00;;;25.54;100.00
24610;BME280;12758;47.890;11.694;2023-08-17T12:09:08;93977.59;;;25.92;100.00
24610;BME280;12758;47.890;11.694;2023-08-17T12:11:34;93977.72;;;25.85;100.00
24610;BME280;12758;47.890;11.694;2023-08-17T12:14:08;93978.97;;;26.47;100.00
24610;BME280;12758;47.890;11.694;2023-08-17T12:16:34;93981.00;;;26.04;100.00
24610;BME280;12758;47.890;11.694;2023-08-17T12:19:00;93979.00;;;26.04;100.00
24610;BME280;12758;47.890;11.694;2023-08-17T12:21:26;93973.09;;;25.75;100.00
24610;BME280;12758;47.890;11.694;2023-08-17T12:23:54;93972.66;;;25.53;100.00
24610;BME280;12758;47.890;11.694;2023-08-17T12:26:21;93974.06;;;26.12;100.00
24610;BME280;12758;47.890;11.694;2023-08-17T12:28:47;93968.94;;;26.54;100.00
24610;BME280;12758;47.890;11.694;2023-08-17T12:31:14;93963.97;;;26.41;100.00
24610;BME280;12758;47.890;11.694;2023-08-17T12:33:46;93967.34;;;26.33;100.00
24610;BME280;12758;47.890;11.694;2023-08-17T12:36:12;93956.25;;;25.86;100.00
24610;BME280;12758;47.890;11.694;2023-08-17T12:38:38;93959.66;;;25.70;100.00